PLZ weather

Port Elizabeth Airport
Port Elizabeth, Eastern Cape, South Africa

Public forecast

Using degrees Celsius for public forecast. Weather courtesy of forecast.io.

Current aviation weather report (METAR) for Port Elizabeth Airport

Retrieved 2020/06/02 22:00 UTC (55 minutes ago):

FAPE 022200Z 25008KT CAVOK 16/14 Q1018 NOSIG

Aviation forecast (TAF) for Port Elizabeth Airport

Retrieved 2020/06/02 18:00 UTC (5 hours ago):

TAF FAPE 021600Z 0218/0318 24011KT CAVOK TX21/0312Z TN13/0305Z BECMG 0219/0221 SCT015 PROB30 TEMPO 0301/0304 BKN005 BECMG 0304/0306 BKN010 BECMG 0310/0312 BKN025